Time;durP1;ratioP1;P1;durP2;ratioP2;P2;SDS_P1;SDS_P2;PMS_P1;PMS_P2;Temp;Humidity;BMP_temperature;BMP_pressure;BME280_temperature;BME280_humidity;BME280_pressure;Samples;Min_cycle;Max_cycle;Signal;HPM_P1;HPM_P2
2023/10/23 00:01:34;;;;;;;6.20;1.37;;;;;;;-145.69;63.15;52216.66;5079257;28;20650;-80
2023/10/23 00:04:01;;;;;;;2.70;1.10;;;;;;;-145.69;62.92;52212.69;5077908;28;20201;-80
2023/10/23 00:06:28;;;;;;;3.40;1.10;;;;;;;-145.69;63.64;52238.44;5078262;28;20198;-80
2023/10/23 00:08:54;;;;;;;1.87;1.10;;;;;;;-145.69;63.40;52240.41;5077667;28;20245;-80
2023/10/23 00:11:27;;;;;;;4.43;1.10;;;;;;;-145.69;64.33;52230.50;5076931;28;20202;-80
2023/10/23 00:13:54;;;;;;;2.00;1.10;;;;;;;-145.69;64.34;52250.31;5076620;28;20199;-80
2023/10/23 00:16:21;;;;;;;4.37;1.20;;;;;;;-145.69;64.14;52222.59;5076005;28;20215;-80
2023/10/23 00:18:48;;;;;;;2.20;0.93;;;;;;;-145.69;63.85;52220.59;5081051;28;20662;-80
2023/10/23 00:21:15;;;;;;;2.90;1.03;;;;;;;-145.69;65.17;52250.31;5079350;28;20229;-80
2023/10/23 00:23:41;;;;;;;1.33;0.97;;;;;;;-145.69;64.56;52256.25;5079768;28;20209;-80
2023/10/23 00:26:08;;;;;;;3.23;1.23;;;;;;;-145.69;65.29;52218.63;5080032;28;20198;-79
2023/10/23 00:28:36;;;;;;;2.93;0.90;;;;;;;-145.69;65.16;52234.47;5096636;28;20222;-80
2023/10/23 00:31:05;;;;;;;7.37;1.20;;;;;;;-145.69;66.66;52254.28;5098487;28;20202;-80
2023/10/23 00:33:31;;;;;;;1.10;1.00;;;;;;;-145.69;65.48;52216.66;5095601;28;20202;-80
2023/10/23 00:35:58;;;;;;;5.47;1.10;;;;;;;-145.69;66.23;52270.13;5077189;28;20210;-80
2023/10/23 00:38:24;;;;;;;2.93;1.23;;;;;;;-145.69;66.14;52214.66;5077264;28;20202;-80
2023/10/23 00:40:51;;;;;;;2.30;1.07;;;;;;;-145.69;66.36;52256.25;5076634;28;20224;-80
2023/10/23 00:43:19;;;;;;;6.50;1.50;;;;;;;-145.69;66.60;52232.50;5077335;28;20757;-80
2023/10/23 00:45:51;;;;;;;1.77;1.00;;;;;;;-145.69;66.32;52226.53;5077828;28;20563;-80
2023/10/23 00:48:21;;;;;;;4.47;1.20;;;;;;;-145.69;67.33;52228.53;5092302;28;20305;-80
2023/10/23 00:50:49;;;;;;;6.20;1.37;;;;;;;-145.69;66.29;52262.19;5057645;28;20195;-80
2023/10/23 00:53:15;;;;;;;4.40;1.37;;;;;;;-145.69;66.56;52236.44;5058405;28;20200;-80
2023/10/23 00:55:42;;;;;;;6.20;1.27;;;;;;;-145.69;66.18;52262.19;5057338;28;20203;-80
2023/10/23 00:58:09;;;;;;;3.73;1.30;;;;;;;-145.69;67.42;52280.00;5082894;28;20194;-80
2023/10/23 01:00:36;;;;;;;2.10;1.20;;;;;;;-145.69;68.23;52244.38;5097876;28;20284;-80
2023/10/23 01:03:04;;;;;;;4.07;1.20;;;;;;;-145.69;67.30;52250.31;5097655;28;20624;-80
2023/10/23 01:05:31;;;;;;;7.40;1.40;;;;;;;-145.69;66.77;52266.16;5080671;28;20202;-80
2023/10/23 01:07:58;;;;;;;2.93;1.43;;;;;;;-145.69;66.83;52238.44;5083209;28;20194;-81
2023/10/23 01:10:25;;;;;;;4.43;1.43;;;;;;;-145.69;66.41;52236.44;5097913;28;20205;-80
2023/10/23 01:12:53;;;;;;;1.40;1.10;;;;;;;-145.69;67.03;52240.41;5098056;28;20294;-80
2023/10/23 01:15:20;;;;;;;7.60;1.40;;;;;;;-145.69;66.62;52248.34;5057137;28;20539;-80
2023/10/23 01:17:46;;;;;;;2.53;1.50;;;;;;;-145.69;66.80;52258.22;5057046;28;20210;-80
2023/10/23 01:20:15;;;;;;;3.00;1.00;;;;;;;-145.69;67.05;52254.28;5066300;28;20198;-80
2023/10/23 01:22:41;;;;;;;4.43;1.30;;;;;;;-145.69;67.66;52242.38;5085135;28;20558;-80
2023/10/23 01:25:12;;;;;;;4.47;1.40;;;;;;;-145.69;66.71;52270.13;5081619;28;20307;-80
2023/10/23 01:27:39;;;;;;;3.30;1.30;;;;;;;-145.69;66.38;52283.97;5082438;28;20194;-80
2023/10/23 01:30:08;;;;;;;3.53;1.27;;;;;;;-145.69;67.72;52234.47;5081227;28;20230;-80
2023/10/23 01:32:34;;;;;;;5.20;1.53;;;;;;;-145.69;67.24;52222.59;5082364;28;20290;-80
2023/10/23 01:35:01;;;;;;;4.43;1.23;;;;;;;-145.69;67.65;52242.38;5091575;28;20198;-80
2023/10/23 01:37:29;;;;;;;5.33;1.20;;;;;;;-145.69;67.72;52256.25;5083225;28;20571;-80
2023/10/23 01:39:55;;;;;;;3.80;1.50;;;;;;;-145.69;68.99;52260.22;5083276;28;20210;-80
2023/10/23 01:42:26;;;;;;;4.07;1.27;;;;;;;-145.69;69.09;52226.53;5100839;28;20230;-80
2023/10/23 01:44:53;;;;;;;3.60;1.77;;;;;;;-145.69;68.46;52264.16;5099828;28;20667;-80
2023/10/23 01:47:19;;;;;;;4.87;1.50;;;;;;;-145.69;68.84;52254.28;5099401;28;20237;-80
2023/10/23 01:49:46;;;;;;;2.13;1.50;;;;;;;-145.69;68.27;52293.88;5099619;28;20226;-80
2023/10/23 01:52:12;;;;;;;1.93;1.37;;;;;;;-145.69;69.35;52246.34;5095085;28;20538;-80
2023/10/23 01:54:39;;;;;;;3.37;1.60;;;;;;;-145.69;68.51;52250.31;5089471;28;20238;-81
2023/10/23 01:57:05;;;;;;;1.73;1.37;;;;;;;-145.69;69.04;52240.41;5098232;28;20270;-80
2023/10/23 01:59:33;;;;;;;2.83;1.20;;;;;;;-145.69;69.91;52258.22;5099418;28;20194;-80
2023/10/23 02:02:00;;;;;;;3.43;1.50;;;;;;;-145.69;68.77;52258.22;5089442;28;20213;-80
2023/10/23 02:04:27;;;;;;;2.30;1.40;;;;;;;-145.69;69.06;52240.41;5080249;28;20330;-80
2023/10/23 02:06:53;;;;;;;3.63;1.40;;;;;;;-145.69;69.00;52264.16;5081540;28;20641;-80
2023/10/23 02:09:20;;;;;;;3.00;1.47;;;;;;;-145.69;69.12;52248.34;5082200;28;20233;-80
2023/10/23 02:11:47;;;;;;;3.27;1.20;;;;;;;-145.69;68.34;52266.16;5085148;28;20198;-80
2023/10/23 02:14:13;;;;;;;3.73;1.37;;;;;;;-145.69;68.81;52260.22;5083467;28;20206;-80
2023/10/23 02:16:41;;;;;;;3.47;1.30;;;;;;;-145.69;68.71;52226.53;5085004;28;20554;-80
2023/10/23 02:19:08;;;;;;;3.13;1.80;;;;;;;-145.69;68.15;52250.31;5085193;28;20198;-80
2023/10/23 02:21:35;;;;;;;3.73;1.70;;;;;;;-145.69;68.27;52234.47;5085964;28;20203;-80
2023/10/23 02:24:02;;;;;;;4.30;1.40;;;;;;;-145.69;69.15;52274.06;5083720;28;20198;-80
2023/10/23 02:26:29;;;;;;;5.30;1.50;;;;;;;-145.69;68.62;52244.38;5079552;28;20194;-80
2023/10/23 02:28:57;;;;;;;2.00;1.20;;;;;;;-145.69;69.16;52287.94;5079793;28;20681;-80
2023/10/23 02:31:23;;;;;;;3.57;1.30;;;;;;;-145.69;68.92;52270.13;5078070;28;20230;-80
2023/10/23 02:33:51;;;;;;;3.83;1.30;;;;;;;-145.69;67.82;52276.06;5077388;28;20208;-79
2023/10/23 02:36:18;;;;;;;8.47;1.30;;;;;;;-145.69;67.44;52238.44;5076794;28;20207;-79
2023/10/23 02:38:45;;;;;;;2.43;1.33;;;;;;;-145.69;67.64;52266.16;5076608;28;20202;-79
2023/10/23 02:41:11;;;;;;;2.30;1.37;;;;;;;-145.69;67.48;52282.00;5086389;28;20345;-79
2023/10/23 02:43:38;;;;;;;2.60;1.33;;;;;;;-145.69;67.57;52293.88;5096564;28;20245;-79
2023/10/23 02:46:04;;;;;;;2.47;1.10;;;;;;;-145.69;67.96;52258.22;5098945;28;20567;-80
2023/10/23 02:48:31;;;;;;;13.30;1.47;;;;;;;-145.69;68.13;52270.13;5098781;28;20218;-79
2023/10/23 02:51:00;;;;;;;2.67;1.10;;;;;;;-145.69;68.26;52280.00;5091559;28;20608;-80
2023/10/23 02:53:27;;;;;;;4.00;1.10;;;;;;;-145.69;67.33;52278.03;5078834;28;20194;-80
2023/10/23 02:55:53;;;;;;;1.10;1.00;;;;;;;-145.69;67.63;52254.28;5078654;28;20199;-80
2023/10/23 02:58:20;;;;;;;4.47;1.37;;;;;;;-145.69;68.35;52276.06;5077901;28;20558;-80
2023/10/23 03:00:46;;;;;;;5.63;1.40;;;;;;;-145.69;69.52;52280.00;5077818;28;20205;-80
2023/10/23 03:03:13;;;;;;;3.27;1.23;;;;;;;-145.69;69.76;52242.38;5077273;28;20549;-80
2023/10/23 03:05:40;;;;;;;3.57;1.20;;;;;;;-145.69;69.20;52276.06;5076999;28;20205;-80
2023/10/23 03:08:08;;;;;;;5.40;1.50;;;;;;;-145.69;68.97;52307.75;5077349;28;20553;-80
2023/10/23 03:10:34;;;;;;;2.27;1.20;;;;;;;-145.69;68.27;52278.03;5080632;28;20221;-79
2023/10/23 03:13:02;;;;;;;4.57;1.23;;;;;;;-145.69;67.70;52274.06;5097615;28;20194;-79
2023/10/23 03:15:29;;;;;;;2.23;1.33;;;;;;;-145.69;68.43;52258.22;5097647;28;20225;-80
2023/10/23 03:17:56;;;;;;;3.67;1.33;;;;;;;-145.69;68.26;52287.94;5097092;28;20909;-80
2023/10/23 03:20:22;;;;;;;2.20;1.30;;;;;;;-145.69;70.47;52264.16;5094297;28;20206;-79
2023/10/23 03:22:49;;;;;;;4.17;1.20;;;;;;;-145.69;69.06;52254.28;5077749;28;20253;-80
2023/10/23 03:25:16;;;;;;;7.90;1.50;;;;;;;-145.69;67.86;52266.16;5067697;28;20215;-80
2023/10/23 03:27:43;;;;;;;1.60;1.07;;;;;;;-145.69;68.64;52246.34;5058802;28;20207;-80
2023/10/23 03:30:11;;;;;;;2.93;1.50;;;;;;;-145.69;68.62;52278.03;5059616;28;20238;-80
2023/10/23 03:32:37;;;;;;;4.63;1.33;;;;;;;-145.69;69.09;52244.38;5097108;28;20280;-80
2023/10/23 03:35:06;;;;;;;2.27;1.10;;;;;;;-145.69;67.88;52278.03;5099846;28;20201;-80
2023/10/23 03:37:33;;;;;;;3.23;1.43;;;;;;;-145.69;69.04;52266.16;5095694;28;20267;-79
2023/10/23 03:40:02;;;;;;;4.20;1.47;;;;;;;-145.69;69.30;52258.22;5095007;28;20198;-80
2023/10/23 03:42:30;;;;;;;2.57;1.50;;;;;;;-145.69;68.10;52258.22;5054794;28;20227;-79
2023/10/23 03:44:57;;;;;;;2.87;1.30;;;;;;;-145.69;68.90;52246.34;5069156;28;20592;-79
2023/10/23 03:47:23;;;;;;;2.03;1.53;;;;;;;-145.69;69.37;52250.31;5075680;28;20721;-80
2023/10/23 03:49:50;;;;;;;1.70;1.20;;;;;;;-145.69;69.50;52238.44;5075938;28;20309;-79
2023/10/23 03:52:16;;;;;;;2.80;1.40;;;;;;;-145.69;69.16;52268.13;5076281;28;20218;-80
2023/10/23 03:54:46;;;;;;;3.87;1.37;;;;;;;-145.69;68.70;52260.22;5075896;28;20205;-79
2023/10/23 03:57:12;;;;;;;6.03;1.50;;;;;;;-145.69;67.35;52260.22;5076783;28;20199;-80
2023/10/23 03:59:43;;;;;;;1.90;1.03;;;;;;;-145.69;67.50;52283.97;5076152;28;20558;-79
2023/10/23 04:02:13;;;;;;;1.83;1.37;;;;;;;-145.69;68.01;52242.38;5074910;28;20199;-79
2023/10/23 04:04:39;;;;;;;3.23;1.30;;;;;;;-145.69;67.50;52268.13;5074217;28;20676;-79
2023/10/23 04:07:08;;;;;;;2.13;1.20;;;;;;;-145.69;67.11;52274.06;5081808;28;20205;-79
2023/10/23 04:09:36;;;;;;;2.23;1.10;;;;;;;-145.69;67.24;52280.00;5094574;28;20221;-80
2023/10/23 04:12:03;;;;;;;1.40;0.93;;;;;;;-145.69;66.81;52258.22;5076189;28;20260;-79
2023/10/23 04:14:30;;;;;;;3.87;1.43;;;;;;;-145.69;67.81;52234.47;5074211;28;20562;-79
2023/10/23 04:16:58;;;;;;;3.13;1.33;;;;;;;-145.69;67.69;52266.16;5079449;28;20198;-79
2023/10/23 04:19:25;;;;;;;2.63;1.50;;;;;;;-145.69;68.33;52250.31;5092059;28;20225;-79
2023/10/23 04:21:51;;;;;;;5.67;1.90;;;;;;;-145.69;67.88;52278.03;5093612;28;20535;-80
2023/10/23 04:24:18;;;;;;;4.57;1.23;;;;;;;-145.69;68.29;52285.97;5093860;28;20198;-79
2023/10/23 04:26:44;;;;;;;6.33;1.40;;;;;;;-145.69;68.17;52276.06;5094096;28;20198;-79
2023/10/23 04:29:12;;;;;;;1.47;0.90;;;;;;;-145.69;68.29;52232.50;5088374;28;20261;-79
2023/10/23 04:31:42;;;;;;;1.83;1.10;;;;;;;-145.69;67.80;52291.91;5075722;28;20195;-79
2023/10/23 04:34:10;;;;;;;1.33;1.20;;;;;;;-145.69;66.73;52250.31;5073752;28;20203;-79
2023/10/23 04:36:36;;;;;;;3.75;1.45;;;;;;;-145.69;67.35;52272.09;5073142;28;20442;-79
2023/10/23 04:39:05;;;;;;;1.40;1.30;;;;;;;-145.69;67.08;52274.06;5077904;28;20201;-79
2023/10/23 04:41:31;;;;;;;4.43;1.27;;;;;;;-145.69;67.94;52266.16;5094041;28;20204;-79
2023/10/23 04:43:58;;;;;;;4.73;1.40;;;;;;;-145.69;68.00;52276.06;5082168;28;20226;-79
2023/10/23 04:46:24;;;;;;;4.63;1.10;;;;;;;-145.69;68.03;52282.00;5073752;28;20209;-79
2023/10/23 04:48:51;;;;;;;3.00;1.30;;;;;;;-145.69;67.82;52250.31;5073561;28;20199;-79
2023/10/23 04:51:19;;;;;;;3.03;1.37;;;;;;;-145.69;68.02;52260.22;5073469;28;20198;-79
2023/10/23 04:53:45;;;;;;;3.13;1.57;;;;;;;-145.69;67.65;52254.28;5082233;28;20277;-79
2023/10/23 04:56:13;;;;;;;5.77;1.80;;;;;;;-145.69;67.53;52278.03;5093497;28;20206;-79
2023/10/23 04:58:43;;;;;;;3.17;1.60;;;;;;;-145.69;67.44;52285.97;5093795;28;20205;-79
2023/10/23 05:01:16;;;;;;;6.77;1.50;;;;;;;-145.69;66.91;52226.53;5084240;28;20203;-79
2023/10/23 05:03:42;;;;;;;2.70;1.23;;;;;;;-145.69;67.46;52287.94;5083921;28;20191;-79
2023/10/23 05:06:09;;;;;;;1.53;1.30;;;;;;;-145.69;67.33;52285.97;5093558;28;20203;-79
2023/10/23 05:08:38;;;;;;;3.47;1.60;;;;;;;-145.69;67.86;52258.22;5093252;28;20481;-79
2023/10/23 05:11:06;;;;;;;2.57;1.30;;;;;;;-145.69;67.28;52252.28;5094436;28;20225;-80
2023/10/23 05:13:34;;;;;;;3.63;1.40;;;;;;;-145.69;67.02;52250.31;5087894;28;20198;-80
2023/10/23 05:16:09;;;;;;;3.67;1.47;;;;;;;-145.69;67.42;52250.31;5074183;28;20198;-80
2023/10/23 05:18:35;;;;;;;2.93;1.37;;;;;;;-145.69;67.53;52260.22;5074563;28;20202;-80
2023/10/23 05:21:06;;;;;;;2.83;1.43;;;;;;;-145.69;67.43;52236.44;5074401;28;20195;-80
2023/10/23 05:23:33;;;;;;;3.93;1.80;;;;;;;-145.69;67.87;52289.91;5080426;28;20198;-79
2023/10/23 05:26:01;;;;;;;3.77;1.77;;;;;;;-145.69;67.48;52230.50;5093219;28;20675;-80
2023/10/23 05:28:33;;;;;;;9.13;1.80;;;;;;;-145.69;68.59;52270.13;5093106;28;20293;-79
2023/10/23 05:31:00;;;;;;;4.93;1.40;;;;;;;-145.69;68.89;52256.25;5076155;28;20217;-79
2023/10/23 05:33:26;;;;;;;2.50;1.73;;;;;;;-145.69;69.25;52252.28;5087558;28;20199;-79
2023/10/23 05:36:01;;;;;;;8.93;2.23;;;;;;;-145.69;68.05;52274.06;5072857;28;20205;-80
2023/10/23 05:38:28;;;;;;;2.70;1.83;;;;;;;-145.69;69.13;52291.91;5073093;28;20289;-80
2023/10/23 05:40:57;;;;;;;2.50;1.50;;;;;;;-145.69;68.62;52272.09;5073448;28;20206;-80
2023/10/23 05:43:26;;;;;;;4.20;1.53;;;;;;;-145.69;68.44;52276.06;5079617;28;20226;-81
2023/10/23 05:45:54;;;;;;;4.70;1.73;;;;;;;-145.69;69.29;52258.22;5093573;28;20205;-79
2023/10/23 05:48:20;;;;;;;5.33;1.80;;;;;;;-145.69;69.28;52258.22;5094174;28;20205;-80
2023/10/23 05:50:57;;;;;;;2.60;1.67;;;;;;;-145.69;68.67;52266.16;5094492;28;20225;-80
2023/10/23 05:53:23;;;;;;;3.07;1.70;;;;;;;-145.69;68.15;52278.03;5089773;28;20297;-79
2023/10/23 05:55:52;;;;;;;3.67;2.10;;;;;;;-145.69;67.92;52254.28;5072930;28;20202;-80
2023/10/23 05:58:18;;;;;;;4.83;2.30;;;;;;;-145.69;67.54;52278.03;5072495;28;20199;-80
2023/10/23 06:00:46;;;;;;;6.77;1.97;;;;;;;-145.69;69.00;52254.28;5075420;28;20608;-79
2023/10/23 06:03:15;;;;;;;4.37;1.73;;;;;;;-145.69;69.24;52254.28;5093766;28;20194;-80
2023/10/23 06:05:42;;;;;;;4.07;2.07;;;;;;;-145.69;70.03;52242.38;5082959;28;20203;-80
2023/10/23 06:08:13;;;;;;;5.50;2.20;;;;;;;-145.69;70.74;52258.22;5073267;28;20199;-80
2023/10/23 06:10:41;;;;;;;3.73;1.90;;;;;;;-145.69;71.25;52274.06;5076036;28;20229;-80
2023/10/23 06:13:07;;;;;;;6.17;2.03;;;;;;;-145.69;71.07;52280.00;5078839;28;20202;-80
2023/10/23 06:15:36;;;;;;;5.47;2.27;;;;;;;-145.69;70.36;52244.38;5073005;28;20203;-79
2023/10/23 06:18:04;;;;;;;4.70;2.47;;;;;;;-145.69;70.22;52238.44;5072455;28;20206;-79
2023/10/23 06:20:31;;;;;;;5.50;2.03;;;;;;;-145.69;69.83;52226.53;5072835;28;20205;-78
2023/10/23 06:22:58;;;;;;;6.30;1.97;;;;;;;-145.69;70.28;52226.53;5092999;28;20205;-79
2023/10/23 06:25:25;;;;;;;3.33;1.70;;;;;;;-145.69;70.28;52198.81;5092746;28;20198;-79
2023/10/23 06:27:51;;;;;;;4.67;1.83;;;;;;;-145.69;69.69;52244.38;5092800;28;20226;-79
2023/10/23 06:30:18;;;;;;;8.93;1.97;;;;;;;-145.69;69.82;52234.47;5091818;28;20230;-79
2023/10/23 06:32:44;;;;;;;5.47;1.90;;;;;;;-145.69;68.99;52234.47;5090998;28;20198;-79
2023/10/23 06:35:12;;;;;;;3.53;1.60;;;;;;;-145.69;69.56;52240.41;5092417;28;20204;-80
2023/10/23 06:37:39;;;;;;;5.83;1.90;;;;;;;-145.69;69.97;52268.13;5091677;28;20523;-79
2023/10/23 06:40:06;;;;;;;7.23;2.00;;;;;;;-145.69;68.29;52234.47;5092631;28;20307;-79
2023/10/23 06:42:35;;;;;;;4.73;1.43;;;;;;;-145.69;67.11;52202.78;5074859;28;20235;-79
2023/10/23 06:45:03;;;;;;;3.13;1.80;;;;;;;-145.69;67.95;52212.69;5073323;28;20232;-79
2023/10/23 06:47:33;;;;;;;3.37;1.90;;;;;;;-145.69;66.99;52181.00;5095880;28;20621;-79
2023/10/23 06:50:02;;;;;;;2.90;1.40;;;;;;;-145.69;67.24;52222.59;5096233;28;20218;-79
2023/10/23 06:52:30;;;;;;;4.60;1.40;;;;;;;-145.69;67.06;52226.53;5096205;28;20194;-79
2023/10/23 06:54:56;;;;;;;2.67;1.70;;;;;;;-145.69;66.88;52244.38;5096135;28;20205;-79
2023/10/23 06:57:23;;;;;;;2.07;1.60;;;;;;;-145.69;65.83;52206.75;5076734;28;20285;-79
2023/10/23 06:59:51;;;;;;;2.57;1.47;;;;;;;-145.69;65.93;52210.72;5075556;28;20201;-79
2023/10/23 07:02:20;;;;;;;3.20;1.50;;;;;;;-145.69;64.81;52206.75;5075822;28;20270;-79
2023/10/23 07:04:47;;;;;;;4.63;1.57;;;;;;;-145.69;64.56;52232.50;5095979;28;20281;-79
2023/10/23 07:07:19;;;;;;;6.43;1.50;;;;;;;-145.69;64.06;52200.81;5078128;28;20202;-80
2023/10/23 07:09:48;;;;;;;4.00;1.20;;;;;;;-145.69;65.30;52171.09;5075635;28;20206;-79
2023/10/23 07:12:14;;;;;;;1.80;1.40;;;;;;;-145.69;64.19;52218.63;5075244;28;20202;-79
2023/10/23 07:14:41;;;;;;;4.27;1.70;;;;;;;-145.69;63.14;52218.63;5075118;28;20543;-79
2023/10/23 07:17:10;;;;;;;3.20;1.30;;;;;;;-145.69;63.93;52226.53;5091997;28;20221;-80
2023/10/23 07:19:44;;;;;;;2.27;1.47;;;;;;;-145.69;63.77;52190.91;5095543;28;20202;-79
2023/10/23 07:22:11;;;;;;;3.97;1.40;;;;;;;-145.69;62.29;52202.78;5096289;28;20283;-80
2023/10/23 07:24:37;;;;;;;3.73;1.30;;;;;;;-145.69;61.95;52190.91;5095886;28;20201;-79
2023/10/23 07:27:05;;;;;;;2.40;1.40;;;;;;;-145.69;61.59;52167.13;5079970;28;20226;-80
2023/10/23 07:29:34;;;;;;;3.77;1.60;;;;;;;-145.69;61.77;52190.91;5075391;28;20658;-81
2023/10/23 07:32:04;;;;;;;2.38;1.23;;;;;;;-145.69;61.92;52194.88;5074688;28;20541;-81
2023/10/23 07:34:33;;;;;;;2.27;1.23;;;;;;;-145.69;60.48;52169.13;5075307;28;20198;-80
2023/10/23 07:37:00;;;;;;;2.75;1.30;;;;;;;-145.69;58.66;52190.91;5087494;28;20201;-81
2023/10/23 07:39:26;;;;;;;4.90;1.40;;;;;;;-145.69;58.86;52188.91;5095443;28;20205;-81
2023/10/23 07:41:56;;;;;;;3.25;1.05;;;;;;;-145.69;57.10;52206.75;5095082;28;20198;-81
2023/10/23 07:44:24;;;;;;;2.08;1.13;;;;;;;-145.69;58.18;52177.03;5077447;28;20277;-81
2023/10/23 07:46:54;;;;;;;2.03;1.13;;;;;;;-145.69;58.22;52177.03;5075966;28;20191;-81
2023/10/23 07:49:20;;;;;;;2.15;0.90;;;;;;;-145.69;58.36;52123.56;5075233;28;20207;-80
2023/10/23 07:51:50;;;;;;;3.85;1.00;;;;;;;-145.69;57.16;52177.03;5074850;28;20230;-81
2023/10/23 07:54:20;;;;;;;4.93;1.15;;;;;;;-145.69;55.57;52184.97;5075513;28;20210;-81
2023/10/23 07:56:46;;;;;;;3.65;1.33;;;;;;;-145.69;55.04;52171.09;5088672;28;20242;-81
2023/10/23 07:59:13;;;;;;;2.90;1.20;;;;;;;-145.69;54.22;52123.56;5095665;28;20206;-80
2023/10/23 08:01:54;;;;;;;1.60;0.93;;;;;;;-145.69;52.89;52143.38;5083526;28;20194;-80
2023/10/23 08:04:20;;;;;;;2.90;0.90;;;;;;;-145.69;52.93;52153.28;5073950;28;20286;-80
2023/10/23 08:06:49;;;;;;;1.98;0.70;;;;;;;-145.69;52.10;52163.19;5085116;28;20205;-82
2023/10/23 08:09:17;;;;;;;0.70;0.68;;;;;;;-145.69;51.62;52143.38;5094530;28;20218;-83
2023/10/23 08:11:44;;;;;;;1.77;0.80;;;;;;;-145.69;50.64;52155.25;5094372;28;20315;-82
2023/10/23 08:14:11;;;;;;;2.63;0.88;;;;;;;-145.69;50.64;52163.19;5095550;28;20743;-81
2023/10/23 08:16:37;;;;;;;0.70;0.70;;;;;;;-145.69;50.38;52143.38;5086583;28;20205;-82
2023/10/23 08:19:05;;;;;;;2.83;0.85;;;;;;;-145.69;50.26;52159.22;5094459;28;20205;-82
2023/10/23 08:21:32;;;;;;;2.03;0.90;;;;;;;-145.69;49.49;52095.84;5094670;28;20622;-82
2023/10/23 08:23:59;;;;;;;1.35;0.50;;;;;;;-145.69;48.87;52115.66;5094760;28;20229;-81
2023/10/23 08:26:26;;;;;;;1.48;0.70;;;;;;;-145.69;48.72;52129.50;5079755;28;20203;-81
2023/10/23 08:28:52;;;;;;;3.20;0.82;;;;;;;-145.69;48.63;52107.72;5083554;28;20198;-80
2023/10/23 08:31:19;;;;;;;1.38;0.90;;;;;;;-145.69;48.40;52123.56;5073751;28;20681;-81
2023/10/23 08:33:47;;;;;;;1.10;0.68;;;;;;;-145.69;47.94;52129.50;5083584;28;20202;-80
2023/10/23 08:36:15;;;;;;;0.65;0.60;;;;;;;-145.69;47.48;52121.59;5074740;28;20206;-80
2023/10/23 08:38:41;;;;;;;3.63;0.68;;;;;;;-145.69;47.45;52119.63;5074705;28;20199;-80
2023/10/23 08:41:11;;;;;;;3.22;0.60;;;;;;;-145.69;47.43;52127.53;5075731;28;20201;-80
2023/10/23 08:43:39;;;;;;;3.60;0.70;;;;;;;-145.69;47.22;52091.88;5075693;28;20257;-80
2023/10/23 08:46:09;;;;;;;2.88;0.60;;;;;;;-145.69;46.63;52135.47;5074327;28;20693;-80
2023/10/23 08:48:37;;;;;;;1.30;0.80;;;;;;;-145.69;46.79;52117.63;5074311;28;20305;-82
2023/10/23 08:51:09;;;;;;;5.35;0.70;;;;;;;-145.69;46.68;52119.63;5072191;28;20222;-79
2023/10/23 08:53:47;;;;;;;1.33;0.60;;;;;;;-145.69;46.11;52085.94;5077167;28;20198;-79
2023/10/23 08:56:17;;;;;;;0.90;0.77;;;;;;;-145.69;46.16;52111.69;5077776;28;20207;-80
2023/10/23 08:58:53;;;;;;;0.80;0.60;;;;;;;-145.69;45.75;52115.66;5076448;28;20264;-80
2023/10/23 09:01:19;;;;;;;1.02;0.60;;;;;;;-145.69;45.59;52095.84;5076267;28;20217;-79
2023/10/23 09:03:46;;;;;;;1.65;0.70;;;;;;;-145.69;45.46;52087.94;5076048;28;20570;-80
2023/10/23 09:06:17;;;;;;;0.88;0.50;;;;;;;-145.69;45.16;52074.06;5078175;28;20225;-80
2023/10/23 09:08:45;;;;;;;0.90;0.65;;;;;;;-145.69;45.40;52085.94;5073844;28;20198;-80
2023/10/23 09:11:12;;;;;;;1.02;0.70;;;;;;;-145.69;44.85;52091.88;5076029;28;20234;-80
2023/10/23 09:13:40;;;;;;;1.25;0.88;;;;;;;-145.69;44.40;52099.81;5079721;28;20201;-80
2023/10/23 09:16:08;;;;;;;3.35;0.70;;;;;;;-145.69;44.77;52064.16;5079175;28;20198;-80
2023/10/23 09:18:34;;;;;;;3.42;0.70;;;;;;;-145.69;44.91;52087.94;5080463;28;20214;-79
2023/10/23 09:21:02;;;;;;;0.73;0.57;;;;;;;-145.69;44.46;52060.22;5076001;28;20662;-80
2023/10/23 09:23:28;;;;;;;3.97;0.70;;;;;;;-145.69;44.62;52107.72;5076482;28;20566;-80
2023/10/23 09:26:00;;;;;;;1.70;0.63;;;;;;;-145.69;44.12;52093.88;5076125;28;20584;-80
2023/10/23 09:28:28;;;;;;;1.98;0.77;;;;;;;-145.69;44.07;52072.09;5077618;28;20202;-80
2023/10/23 09:30:54;;;;;;;1.08;0.45;;;;;;;-145.69;44.14;52052.28;5078902;28;20638;-80
2023/10/23 09:33:21;;;;;;;1.25;0.65;;;;;;;-145.69;44.11;52083.97;5095461;28;20728;-80
2023/10/23 09:35:47;;;;;;;1.13;0.55;;;;;;;-145.69;44.65;52064.16;5103206;28;20428;-80
2023/10/23 09:38:16;;;;;;;2.20;0.70;;;;;;;-145.69;43.41;52068.13;5105985;28;20206;-80
2023/10/23 09:40:44;;;;;;;0.93;0.57;;;;;;;-145.69;43.32;52026.53;5090314;28;20199;-81
2023/10/23 09:43:14;;;;;;;1.33;0.60;;;;;;;-145.69;42.50;52038.44;5072944;28;20230;-80
2023/10/23 09:45:42;;;;;;;1.95;0.60;;;;;;;-145.69;42.14;52040.41;5057721;28;20195;-79
2023/10/23 09:48:09;;;;;;;0.50;0.50;;;;;;;-145.69;40.94;52048.31;5061524;28;20272;-79
2023/10/23 09:50:38;;;;;;;1.20;0.60;;;;;;;-145.69;41.15;52028.53;5071903;28;20193;-80
2023/10/23 09:53:09;;;;;;;2.15;0.57;;;;;;;-145.69;40.68;52040.41;5079687;28;20195;-80
2023/10/23 09:55:37;;;;;;;1.35;0.60;;;;;;;-145.69;40.77;52032.47;5076535;28;20202;-80
2023/10/23 09:58:09;;;;;;;3.03;0.57;;;;;;;-145.69;40.47;52024.56;5078528;28;20207;-80
2023/10/23 10:00:39;;;;;;;1.92;0.60;;;;;;;-145.69;40.44;52026.53;5086625;28;20194;-80
2023/10/23 10:03:12;;;;;;;1.60;0.70;;;;;;;-145.69;40.41;52000.81;5097414;28;20394;-80
2023/10/23 10:05:45;;;;;;;0.90;0.60;;;;;;;-145.69;40.25;52022.59;5082289;28;20202;-80
2023/10/23 10:08:15;;;;;;;2.13;0.70;;;;;;;-145.69;39.96;52072.09;5073868;28;20202;-79
2023/10/23 10:10:42;;;;;;;2.88;0.63;;;;;;;-145.69;40.09;52030.50;5073116;28;20199;-79
2023/10/23 10:13:11;;;;;;;0.90;0.60;;;;;;;-145.69;40.24;52024.56;5084713;28;20208;-80
2023/10/23 10:15:39;;;;;;;1.67;0.70;;;;;;;-145.69;40.09;52042.38;5093993;28;20201;-80
2023/10/23 10:18:06;;;;;;;0.60;0.50;;;;;;;-145.69;39.76;52020.59;5090172;28;20203;-80
2023/10/23 10:20:33;;;;;;;2.22;0.60;;;;;;;-145.69;39.76;52002.78;5084305;28;20195;-80
2023/10/23 10:23:07;;;;;;;1.00;0.60;;;;;;;-145.69;39.60;52060.22;5080250;28;20225;-80
2023/10/23 10:25:34;;;;;;;1.45;0.50;;;;;;;-145.69;39.34;52028.53;5077906;28;20203;-80
2023/10/23 10:28:05;;;;;;;2.63;0.40;;;;;;;-145.69;39.85;52018.63;5078271;28;20203;-80
2023/10/23 10:30:41;;;;;;;1.83;0.60;;;;;;;-145.69;38.74;52028.53;5079518;28;20196;-81
2023/10/23 10:33:09;;;;;;;1.05;0.60;;;;;;;-145.69;39.26;52008.72;5077598;28;20195;-80
2023/10/23 10:35:36;;;;;;;1.00;0.43;;;;;;;-145.69;39.45;52044.38;5078539;28;20199;-80
2023/10/23 10:38:03;;;;;;;2.88;0.47;;;;;;;-145.69;39.90;52004.75;5078386;28;20207;-80
2023/10/23 10:40:56;;;;;;;3.38;0.60;;;;;;;-145.69;38.80;52022.59;5086145;28;20190;-80
2023/10/23 10:43:25;;;;;;;2.00;0.70;;;;;;;-145.69;38.91;52044.38;5100599;28;20250;-80
2023/10/23 10:45:55;;;;;;;1.10;0.70;;;;;;;-145.69;38.66;52010.69;5098722;28;20198;-81
2023/10/23 10:48:23;;;;;;;1.15;0.60;;;;;;;-145.69;39.78;52016.66;5098924;28;20293;-81
2023/10/23 10:50:50;;;;;;;0.45;0.45;;;;;;;-145.69;39.45;52032.47;5091793;28;20199;-80
2023/10/23 10:53:16;;;;;;;1.65;0.50;;;;;;;-145.69;39.69;52018.63;5078244;28;20221;-80
2023/10/23 10:55:45;;;;;;;0.75;0.47;;;;;;;-145.69;39.78;52012.69;5078734;28;20206;-80
2023/10/23 10:58:12;;;;;;;2.60;1.13;;;;;;;-145.69;39.84;52014.66;5077198;28;20275;-80
2023/10/23 11:00:38;;;;;;;1.33;0.60;;;;;;;-145.69;40.16;52028.53;5085847;28;20206;-80
2023/10/23 11:03:07;;;;;;;0.77;0.57;;;;;;;-145.69;40.12;52028.53;5089063;28;20198;-80
2023/10/23 11:05:35;;;;;;;2.95;0.70;;;;;;;-145.69;40.83;52083.97;5080483;28;20210;-80
2023/10/23 11:08:03;;;;;;;2.00;0.60;;;;;;;-145.69;41.04;52054.25;5082715;28;20258;-80
2023/10/23 11:10:30;;;;;;;1.73;0.68;;;;;;;-145.69;40.79;52060.22;5082623;28;20229;-80
2023/10/23 11:12:57;;;;;;;1.55;0.70;;;;;;;-145.69;41.12;52062.19;5081133;28;20233;-80
2023/10/23 11:15:24;;;;;;;0.68;0.50;;;;;;;-145.69;41.49;52028.53;5078179;28;20650;-80
2023/10/23 11:17:51;;;;;;;1.50;0.60;;;;;;;-145.69;42.49;52048.31;5081097;28;20206;-80
2023/10/23 11:20:18;;;;;;;0.80;0.57;;;;;;;-145.69;41.86;52056.25;5097674;28;20273;-80